ABT weather

Al Baha Airport
Al Batah Region, Saudi Arabia

Public forecast

Using degrees Celsius for public forecast. Weather courtesy of forecast.io.

METAR (pilot weather report)

Retrieved 2019/09/17 01:00 UTC (13 minutes ago):

OEBA 170100Z 00000KT CAVOK 24/05 Q1018 NOSIG

TAF (pilot weather forecast)

Forecast is more than 12 hours old.

Retrieved 2019/09/16 00:09 UTC (1 day ago):

TAF OEBA 162300Z 1700/1806 20006KT CAVOK BECMG 1706/1708 12010G20KT 6000 FEW030 TEMPO 1710/1718 FEW025CB SCT030 BECMG 1720/1722 VRB03KT